sensor_id;sensor_type;location;lat;lon;timestamp;P1;durP1;ratioP1;P2;durP2;ratioP2
77287;SDS011;66345;42.694;23.346;2023-05-08T00:01:08;5.00;;;2.08;;
77287;SDS011;66345;42.694;23.346;2023-05-08T00:03:34;4.40;;;1.75;;
77287;SDS011;66345;42.694;23.346;2023-05-08T00:06:02;4.47;;;2.00;;
77287;SDS011;66345;42.694;23.346;2023-05-08T00:08:28;4.75;;;2.45;;
77287;SDS011;66345;42.694;23.346;2023-05-08T00:10:54;4.13;;;1.80;;
77287;SDS011;66345;42.694;23.346;2023-05-08T00:13:19;4.57;;;2.00;;
77287;SDS011;66345;42.694;23.346;2023-05-08T00:15:44;4.85;;;1.80;;
77287;SDS011;66345;42.694;23.346;2023-05-08T00:18:10;4.70;;;2.00;;
77287;SDS011;66345;42.694;23.346;2023-05-08T00:20:35;5.10;;;2.00;;
77287;SDS011;66345;42.694;23.346;2023-05-08T00:23:02;4.85;;;2.10;;
77287;SDS011;66345;42.694;23.346;2023-05-08T00:25:27;4.50;;;1.80;;
77287;SDS011;66345;42.694;23.346;2023-05-08T00:27:54;5.40;;;2.13;;
77287;SDS011;66345;42.694;23.346;2023-05-08T00:30:21;4.13;;;1.95;;
77287;SDS011;66345;42.694;23.346;2023-05-08T00:32:46;6.00;;;2.20;;
77287;SDS011;66345;42.694;23.346;2023-05-08T00:35:12;5.80;;;1.90;;
77287;SDS011;66345;42.694;23.346;2023-05-08T00:37:37;5.40;;;2.33;;
77287;SDS011;66345;42.694;23.346;2023-05-08T00:40:05;6.47;;;2.53;;
77287;SDS011;66345;42.694;23.346;2023-05-08T00:42:32;4.40;;;2.10;;
77287;SDS011;66345;42.694;23.346;2023-05-08T00:44:59;4.57;;;2.13;;
77287;SDS011;66345;42.694;23.346;2023-05-08T00:47:24;6.80;;;2.25;;
77287;SDS011;66345;42.694;23.346;2023-05-08T00:49:50;4.07;;;2.20;;
77287;SDS011;66345;42.694;23.346;2023-05-08T00:52:16;5.78;;;2.30;;
77287;SDS011;66345;42.694;23.346;2023-05-08T00:54:43;6.57;;;2.28;;
77287;SDS011;66345;42.694;23.346;2023-05-08T00:57:09;5.97;;;1.97;;
77287;SDS011;66345;42.694;23.346;2023-05-08T00:59:34;5.15;;;2.00;;
77287;SDS011;66345;42.694;23.346;2023-05-08T01:02:01;4.63;;;1.97;;
77287;SDS011;66345;42.694;23.346;2023-05-08T01:04:27;5.18;;;1.80;;
77287;SDS011;66345;42.694;23.346;2023-05-08T01:06:54;5.93;;;2.42;;
77287;SDS011;66345;42.694;23.346;2023-05-08T01:09:20;4.77;;;2.20;;
77287;SDS011;66345;42.694;23.346;2023-05-08T01:11:51;7.65;;;2.33;;
77287;SDS011;66345;42.694;23.346;2023-05-08T01:17:16;5.40;;;2.30;;
77287;SDS011;66345;42.694;23.346;2023-05-08T01:26:06;5.90;;;2.40;;
77287;SDS011;66345;42.694;23.346;2023-05-08T01:28:53;5.05;;;2.10;;
77287;SDS011;66345;42.694;23.346;2023-05-08T01:31:44;6.50;;;2.20;;
77287;SDS011;66345;42.694;23.346;2023-05-08T01:34:35;4.78;;;2.22;;
77287;SDS011;66345;42.694;23.346;2023-05-08T01:37:10;4.35;;;2.13;;
77287;SDS011;66345;42.694;23.346;2023-05-08T01:39:48;6.53;;;2.58;;
77287;SDS011;66345;42.694;23.346;2023-05-08T01:42:22;5.30;;;2.35;;
77287;SDS011;66345;42.694;23.346;2023-05-08T01:45:30;5.57;;;2.53;;
77287;SDS011;66345;42.694;23.346;2023-05-08T01:47:59;6.32;;;2.78;;
77287;SDS011;66345;42.694;23.346;2023-05-08T01:50:32;6.45;;;2.45;;
77287;SDS011;66345;42.694;23.346;2023-05-08T01:53:12;5.63;;;2.20;;
77287;SDS011;66345;42.694;23.346;2023-05-08T01:55:43;8.02;;;2.60;;
77287;SDS011;66345;42.694;23.346;2023-05-08T01:58:12;7.90;;;2.42;;
77287;SDS011;66345;42.694;23.346;2023-05-08T02:00:40;4.65;;;2.40;;
77287;SDS011;66345;42.694;23.346;2023-05-08T02:03:07;6.05;;;2.22;;
77287;SDS011;66345;42.694;23.346;2023-05-08T02:05:38;4.82;;;2.30;;
77287;SDS011;66345;42.694;23.346;2023-05-08T02:08:05;6.60;;;2.85;;
77287;SDS011;66345;42.694;23.346;2023-05-08T02:10:33;5.65;;;2.63;;
77287;SDS011;66345;42.694;23.346;2023-05-08T02:13:01;5.93;;;2.40;;
77287;SDS011;66345;42.694;23.346;2023-05-08T02:15:28;5.97;;;2.80;;
77287;SDS011;66345;42.694;23.346;2023-05-08T02:17:55;6.10;;;2.83;;
77287;SDS011;66345;42.694;23.346;2023-05-08T02:20:22;5.60;;;2.67;;
77287;SDS011;66345;42.694;23.346;2023-05-08T02:22:50;5.07;;;2.67;;
77287;SDS011;66345;42.694;23.346;2023-05-08T02:25:15;5.23;;;2.87;;
77287;SDS011;66345;42.694;23.346;2023-05-08T02:27:44;5.20;;;2.90;;
77287;SDS011;66345;42.694;23.346;2023-05-08T02:30:12;6.07;;;3.20;;
77287;SDS011;66345;42.694;23.346;2023-05-08T02:32:43;7.40;;;2.90;;
77287;SDS011;66345;42.694;23.346;2023-05-08T02:35:13;4.82;;;2.50;;
77287;SDS011;66345;42.694;23.346;2023-05-08T02:37:44;5.27;;;2.70;;
77287;SDS011;66345;42.694;23.346;2023-05-08T02:40:13;5.40;;;2.70;;
77287;SDS011;66345;42.694;23.346;2023-05-08T02:42:41;5.65;;;3.00;;
77287;SDS011;66345;42.694;23.346;2023-05-08T02:45:07;8.07;;;4.95;;
77287;SDS011;66345;42.694;23.346;2023-05-08T02:47:47;7.00;;;2.92;;
77287;SDS011;66345;42.694;23.346;2023-05-08T02:50:20;6.23;;;3.30;;
77287;SDS011;66345;42.694;23.346;2023-05-08T02:52:52;8.32;;;3.00;;
77287;SDS011;66345;42.694;23.346;2023-05-08T02:55:37;6.05;;;3.00;;
77287;SDS011;66345;42.694;23.346;2023-05-08T03:03:52;5.77;;;3.13;;
77287;SDS011;66345;42.694;23.346;2023-05-08T03:06:30;7.88;;;3.20;;
77287;SDS011;66345;42.694;23.346;2023-05-08T03:09:02;6.93;;;3.22;;
77287;SDS011;66345;42.694;23.346;2023-05-08T03:11:32;6.47;;;3.03;;
77287;SDS011;66345;42.694;23.346;2023-05-08T03:14:03;6.43;;;3.05;;
77287;SDS011;66345;42.694;23.346;2023-05-08T03:16:34;7.17;;;3.07;;
77287;SDS011;66345;42.694;23.346;2023-05-08T03:19:04;9.45;;;3.83;;
77287;SDS011;66345;42.694;23.346;2023-05-08T03:21:34;8.85;;;3.67;;
77287;SDS011;66345;42.694;23.346;2023-05-08T03:24:02;9.88;;;4.43;;
77287;SDS011;66345;42.694;23.346;2023-05-08T03:26:31;10.40;;;4.00;;
77287;SDS011;66345;42.694;23.346;2023-05-08T03:28:57;6.90;;;4.10;;
77287;SDS011;66345;42.694;23.346;2023-05-08T03:31:23;8.18;;;4.15;;
77287;SDS011;66345;42.694;23.346;2023-05-08T03:33:51;8.00;;;4.20;;
77287;SDS011;66345;42.694;23.346;2023-05-08T03:36:18;8.05;;;4.55;;
77287;SDS011;66345;42.694;23.346;2023-05-08T03:38:44;8.80;;;4.03;;
77287;SDS011;66345;42.694;23.346;2023-05-08T03:41:10;8.70;;;4.10;;
77287;SDS011;66345;42.694;23.346;2023-05-08T03:43:36;8.23;;;4.32;;
77287;SDS011;66345;42.694;23.346;2023-05-08T03:46:05;8.18;;;3.95;;
77287;SDS011;66345;42.694;23.346;2023-05-08T03:48:31;8.63;;;4.10;;
77287;SDS011;66345;42.694;23.346;2023-05-08T03:51:02;7.85;;;4.25;;
77287;SDS011;66345;42.694;23.346;2023-05-08T03:53:29;9.15;;;4.10;;
77287;SDS011;66345;42.694;23.346;2023-05-08T03:55:58;9.95;;;4.20;;
77287;SDS011;66345;42.694;23.346;2023-05-08T04:04:36;12.80;;;4.53;;
77287;SDS011;66345;42.694;23.346;2023-05-08T04:06:47;10.95;;;4.90;;
77287;SDS011;66345;42.694;23.346;2023-05-08T04:12:04;8.45;;;4.50;;
77287;SDS011;66345;42.694;23.346;2023-05-08T04:14:40;11.40;;;4.53;;
77287;SDS011;66345;42.694;23.346;2023-05-08T04:17:09;8.75;;;4.22;;
77287;SDS011;66345;42.694;23.346;2023-05-08T04:19:45;8.10;;;4.35;;
77287;SDS011;66345;42.694;23.346;2023-05-08T04:22:17;7.05;;;3.92;;
77287;SDS011;66345;42.694;23.346;2023-05-08T04:24:46;7.55;;;4.10;;
77287;SDS011;66345;42.694;23.346;2023-05-08T04:27:13;8.10;;;4.40;;
77287;SDS011;66345;42.694;23.346;2023-05-08T04:29:40;8.55;;;3.72;;
77287;SDS011;66345;42.694;23.346;2023-05-08T04:32:06;7.30;;;4.45;;
77287;SDS011;66345;42.694;23.346;2023-05-08T04:34:33;8.55;;;4.60;;
77287;SDS011;66345;42.694;23.346;2023-05-08T04:36:58;8.47;;;4.50;;
77287;SDS011;66345;42.694;23.346;2023-05-08T04:39:24;9.00;;;5.27;;
77287;SDS011;66345;42.694;23.346;2023-05-08T04:41:49;10.77;;;5.07;;
77287;SDS011;66345;42.694;23.346;2023-05-08T04:44:16;8.55;;;4.63;;
77287;SDS011;66345;42.694;23.346;2023-05-08T04:46:42;8.60;;;4.22;;
77287;SDS011;66345;42.694;23.346;2023-05-08T04:49:07;9.37;;;4.10;;
77287;SDS011;66345;42.694;23.346;2023-05-08T04:51:33;8.07;;;4.07;;
77287;SDS011;66345;42.694;23.346;2023-05-08T04:53:58;9.32;;;3.60;;
77287;SDS011;66345;42.694;23.346;2023-05-08T04:56:24;6.77;;;3.83;;
77287;SDS011;66345;42.694;23.346;2023-05-08T04:58:50;7.80;;;3.90;;
77287;SDS011;66345;42.694;23.346;2023-05-08T05:01:16;11.13;;;4.23;;
77287;SDS011;66345;42.694;23.346;2023-05-08T05:03:41;9.63;;;4.30;;
77287;SDS011;66345;42.694;23.346;2023-05-08T05:06:07;10.38;;;4.93;;
77287;SDS011;66345;42.694;23.346;2023-05-08T05:08:32;8.93;;;5.53;;
77287;SDS011;66345;42.694;23.346;2023-05-08T05:10:58;11.80;;;5.70;;
77287;SDS011;66345;42.694;23.346;2023-05-08T05:13:23;9.20;;;5.03;;
77287;SDS011;66345;42.694;23.346;2023-05-08T05:15:48;10.25;;;5.20;;
77287;SDS011;66345;42.694;23.346;2023-05-08T05:18:18;11.60;;;5.77;;
77287;SDS011;66345;42.694;23.346;2023-05-08T05:20:43;11.48;;;5.28;;
77287;SDS011;66345;42.694;23.346;2023-05-08T05:23:10;10.82;;;5.35;;
77287;SDS011;66345;42.694;23.346;2023-05-08T05:25:36;9.15;;;5.40;;
77287;SDS011;66345;42.694;23.346;2023-05-08T05:28:01;13.70;;;5.37;;
77287;SDS011;66345;42.694;23.346;2023-05-08T05:30:26;9.90;;;5.23;;
77287;SDS011;66345;42.694;23.346;2023-05-08T05:32:52;10.40;;;5.00;;
77287;SDS011;66345;42.694;23.346;2023-05-08T05:35:17;8.57;;;4.80;;
77287;SDS011;66345;42.694;23.346;2023-05-08T05:37:43;11.87;;;5.60;;
77287;SDS011;66345;42.694;23.346;2023-05-08T05:40:08;9.03;;;4.90;;
77287;SDS011;66345;42.694;23.346;2023-05-08T05:42:37;9.05;;;4.78;;
77287;SDS011;66345;42.694;23.346;2023-05-08T05:45:02;9.50;;;5.03;;
77287;SDS011;66345;42.694;23.346;2023-05-08T05:47:28;10.02;;;5.15;;
77287;SDS011;66345;42.694;23.346;2023-05-08T05:49:54;8.27;;;4.80;;
77287;SDS011;66345;42.694;23.346;2023-05-08T05:52:20;9.40;;;5.25;;
77287;SDS011;66345;42.694;23.346;2023-05-08T05:54:45;10.53;;;5.33;;
77287;SDS011;66345;42.694;23.346;2023-05-08T05:57:12;9.17;;;4.90;;
77287;SDS011;66345;42.694;23.346;2023-05-08T05:59:38;9.65;;;5.03;;
77287;SDS011;66345;42.694;23.346;2023-05-08T06:02:04;11.80;;;5.47;;
77287;SDS011;66345;42.694;23.346;2023-05-08T06:04:29;9.07;;;4.93;;
77287;SDS011;66345;42.694;23.346;2023-05-08T06:06:56;10.57;;;5.35;;
77287;SDS011;66345;42.694;23.346;2023-05-08T06:09:22;11.63;;;5.67;;
77287;SDS011;66345;42.694;23.346;2023-05-08T06:11:47;8.77;;;5.05;;
77287;SDS011;66345;42.694;23.346;2023-05-08T06:14:12;10.13;;;5.53;;
77287;SDS011;66345;42.694;23.346;2023-05-08T06:16:38;12.63;;;5.30;;
77287;SDS011;66345;42.694;23.346;2023-05-08T06:19:04;11.57;;;5.30;;
77287;SDS011;66345;42.694;23.346;2023-05-08T06:21:29;9.57;;;5.70;;
77287;SDS011;66345;42.694;23.346;2023-05-08T06:23:54;9.07;;;5.20;;
77287;SDS011;66345;42.694;23.346;2023-05-08T06:26:20;9.67;;;4.97;;
77287;SDS011;66345;42.694;23.346;2023-05-08T06:28:47;10.50;;;5.00;;
77287;SDS011;66345;42.694;23.346;2023-05-08T06:31:12;14.57;;;5.67;;
77287;SDS011;66345;42.694;23.346;2023-05-08T06:33:37;9.53;;;5.13;;
77287;SDS011;66345;42.694;23.346;2023-05-08T06:36:04;9.45;;;5.28;;
77287;SDS011;66345;42.694;23.346;2023-05-08T06:38:30;7.83;;;5.07;;
77287;SDS011;66345;42.694;23.346;2023-05-08T06:40:55;8.38;;;4.85;;
77287;SDS011;66345;42.694;23.346;2023-05-08T06:43:21;13.53;;;5.63;;
77287;SDS011;66345;42.694;23.346;2023-05-08T06:45:46;10.10;;;4.97;;
77287;SDS011;66345;42.694;23.346;2023-05-08T06:48:12;8.50;;;4.80;;
77287;SDS011;66345;42.694;23.346;2023-05-08T06:50:37;7.90;;;5.07;;
77287;SDS011;66345;42.694;23.346;2023-05-08T06:53:04;9.63;;;5.25;;
77287;SDS011;66345;42.694;23.346;2023-05-08T06:55:31;10.15;;;4.97;;
77287;SDS011;66345;42.694;23.346;2023-05-08T06:57:56;10.03;;;5.10;;
77287;SDS011;66345;42.694;23.346;2023-05-08T07:00:22;6.30;;;4.80;;
77287;SDS011;66345;42.694;23.346;2023-05-08T07:02:47;10.30;;;5.30;;
77287;SDS011;66345;42.694;23.346;2023-05-08T07:05:14;9.35;;;5.10;;
77287;SDS011;66345;42.694;23.346;2023-05-08T07:07:40;8.35;;;5.07;;
77287;SDS011;66345;42.694;23.346;2023-05-08T07:10:07;8.17;;;5.03;;
77287;SDS011;66345;42.694;23.346;2023-05-08T07:12:33;12.52;;;5.53;;
77287;SDS011;66345;42.694;23.346;2023-05-08T07:14:58;9.90;;;5.27;;
77287;SDS011;66345;42.694;23.346;2023-05-08T07:17:24;8.10;;;4.75;;
77287;SDS011;66345;42.694;23.346;2023-05-08T07:19:49;9.73;;;4.80;;
77287;SDS011;66345;42.694;23.346;2023-05-08T07:22:15;11.70;;;5.40;;
77287;SDS011;66345;42.694;23.346;2023-05-08T07:24:41;8.07;;;4.70;;
77287;SDS011;66345;42.694;23.346;2023-05-08T07:27:07;10.65;;;4.70;;
77287;SDS011;66345;42.694;23.346;2023-05-08T07:29:32;9.80;;;4.60;;
77287;SDS011;66345;42.694;23.346;2023-05-08T07:32:00;7.70;;;4.90;;
77287;SDS011;66345;42.694;23.346;2023-05-08T07:34:25;9.33;;;5.03;;
77287;SDS011;66345;42.694;23.346;2023-05-08T07:36:51;12.02;;;5.47;;
77287;SDS011;66345;42.694;23.346;2023-05-08T07:39:16;10.00;;;4.70;;
77287;SDS011;66345;42.694;23.346;2023-05-08T07:41:42;9.67;;;5.00;;
77287;SDS011;66345;42.694;23.346;2023-05-08T07:44:07;9.52;;;5.20;;
77287;SDS011;66345;42.694;23.346;2023-05-08T07:46:33;9.57;;;5.30;;
77287;SDS011;66345;42.694;23.346;2023-05-08T07:49:00;10.77;;;5.25;;
77287;SDS011;66345;42.694;23.346;2023-05-08T07:51:25;9.30;;;4.70;;
77287;SDS011;66345;42.694;23.346;2023-05-08T07:53:51;11.13;;;5.22;;
77287;SDS011;66345;42.694;23.346;2023-05-08T07:56:18;9.50;;;5.03;;
77287;SDS011;66345;42.694;23.346;2023-05-08T07:58:43;9.97;;;5.70;;
77287;SDS011;66345;42.694;23.346;2023-05-08T08:01:10;9.82;;;5.25;;
77287;SDS011;66345;42.694;23.346;2023-05-08T08:03:35;8.47;;;5.33;;
77287;SDS011;66345;42.694;23.346;2023-05-08T08:06:01;7.35;;;4.80;;
77287;SDS011;66345;42.694;23.346;2023-05-08T08:08:26;7.87;;;4.53;;
77287;SDS011;66345;42.694;23.346;2023-05-08T08:10:52;8.27;;;4.67;;
77287;SDS011;66345;42.694;23.346;2023-05-08T08:13:18;8.77;;;4.78;;
77287;SDS011;66345;42.694;23.346;2023-05-08T08:15:43;8.77;;;4.40;;
77287;SDS011;66345;42.694;23.346;2023-05-08T08:18:08;6.50;;;3.87;;
77287;SDS011;66345;42.694;23.346;2023-05-08T08:20:34;9.63;;;4.03;;
77287;SDS011;66345;42.694;23.346;2023-05-08T08:22:59;7.83;;;4.37;;
77287;SDS011;66345;42.694;23.346;2023-05-08T08:25:25;8.47;;;4.07;;
77287;SDS011;66345;42.694;23.346;2023-05-08T08:27:51;13.32;;;4.50;;
77287;SDS011;66345;42.694;23.346;2023-05-08T08:30:17;9.00;;;4.20;;
77287;SDS011;66345;42.694;23.346;2023-05-08T08:32:42;10.27;;;4.30;;
77287;SDS011;66345;42.694;23.346;2023-05-08T08:35:08;8.48;;;5.28;;
77287;SDS011;66345;42.694;23.346;2023-05-08T08:37:33;22.70;;;12.60;;
77287;SDS011;66345;42.694;23.346;2023-05-08T08:39:59;9.47;;;4.93;;
77287;SDS011;66345;42.694;23.346;2023-05-08T08:42:27;8.38;;;4.47;;
77287;SDS011;66345;42.694;23.346;2023-05-08T08:44:54;6.55;;;3.70;;
77287;SDS011;66345;42.694;23.346;2023-05-08T08:47:21;7.18;;;4.13;;
77287;SDS011;66345;42.694;23.346;2023-05-08T08:49:50;7.93;;;4.20;;
77287;SDS011;66345;42.694;23.346;2023-05-08T08:52:21;8.03;;;4.20;;
77287;SDS011;66345;42.694;23.346;2023-05-08T08:54:54;10.93;;;4.20;;
77287;SDS011;66345;42.694;23.346;2023-05-08T08:57:21;6.63;;;3.88;;
77287;SDS011;66345;42.694;23.346;2023-05-08T08:59:48;8.93;;;3.92;;
77287;SDS011;66345;42.694;23.346;2023-05-08T09:02:16;8.90;;;3.53;;
77287;SDS011;66345;42.694;23.346;2023-05-08T09:04:44;10.47;;;3.80;;
77287;SDS011;66345;42.694;23.346;2023-05-08T09:07:13;8.05;;;4.10;;
77287;SDS011;66345;42.694;23.346;2023-05-08T09:09:39;11.85;;;3.90;;
77287;SDS011;66345;42.694;23.346;2023-05-08T09:12:08;7.50;;;3.63;;
77287;SDS011;66345;42.694;23.346;2023-05-08T09:14:36;7.30;;;3.95;;
77287;SDS011;66345;42.694;23.346;2023-05-08T09:17:01;8.97;;;4.20;;
77287;SDS011;66345;42.694;23.346;2023-05-08T09:19:27;11.13;;;4.13;;
77287;SDS011;66345;42.694;23.346;2023-05-08T09:21:53;7.70;;;3.90;;
77287;SDS011;66345;42.694;23.346;2023-05-08T09:24:18;8.70;;;4.20;;
77287;SDS011;66345;42.694;23.346;2023-05-08T09:26:44;6.50;;;4.30;;
77287;SDS011;66345;42.694;23.346;2023-05-08T09:29:17;9.75;;;4.53;;
77287;SDS011;66345;42.694;23.346;2023-05-08T09:31:49;9.10;;;4.47;;
77287;SDS011;66345;42.694;23.346;2023-05-08T09:34:22;11.80;;;4.90;;
77287;SDS011;66345;42.694;23.346;2023-05-08T09:36:53;9.30;;;5.10;;
77287;SDS011;66345;42.694;23.346;2023-05-08T09:39:38;12.30;;;5.20;;
77287;SDS011;66345;42.694;23.346;2023-05-08T09:42:06;8.38;;;4.68;;
77287;SDS011;66345;42.694;23.346;2023-05-08T09:44:44;10.43;;;4.43;;
77287;SDS011;66345;42.694;23.346;2023-05-08T09:47:12;8.93;;;4.25;;
77287;SDS011;66345;42.694;23.346;2023-05-08T09:49:39;9.30;;;4.70;;
77287;SDS011;66345;42.694;23.346;2023-05-08T09:52:21;9.48;;;5.00;;
77287;SDS011;66345;42.694;23.346;2023-05-08T09:55:08;8.27;;;3.90;;
77287;SDS011;66345;42.694;23.346;2023-05-08T09:57:36;8.35;;;4.38;;
77287;SDS011;66345;42.694;23.346;2023-05-08T10:02:37;7.78;;;3.80;;
77287;SDS011;66345;42.694;23.346;2023-05-08T10:05:21;6.20;;;3.80;;
77287;SDS011;66345;42.694;23.346;2023-05-08T10:07:50;10.33;;;4.47;;
77287;SDS011;66345;42.694;23.346;2023-05-08T10:10:21;6.38;;;3.60;;
77287;SDS011;66345;42.694;23.346;2023-05-08T10:12:52;15.57;;;4.40;;
77287;SDS011;66345;42.694;23.346;2023-05-08T10:15:19;7.82;;;3.88;;
77287;SDS011;66345;42.694;23.346;2023-05-08T10:20:24;6.78;;;4.13;;
77287;SDS011;66345;42.694;23.346;2023-05-08T10:22:54;10.27;;;5.07;;
77287;SDS011;66345;42.694;23.346;2023-05-08T10:25:21;9.77;;;4.40;;
77287;SDS011;66345;42.694;23.346;2023-05-08T10:27:54;8.25;;;4.28;;
77287;SDS011;66345;42.694;23.346;2023-05-08T10:30:25;8.15;;;3.95;;
77287;SDS011;66345;42.694;23.346;2023-05-08T10:32:51;10.05;;;4.18;;
77287;SDS011;66345;42.694;23.346;2023-05-08T10:35:22;7.97;;;4.57;;
77287;SDS011;66345;42.694;23.346;2023-05-08T10:37:48;7.43;;;4.40;;
77287;SDS011;66345;42.694;23.346;2023-05-08T10:40:14;8.23;;;4.30;;
77287;SDS011;66345;42.694;23.346;2023-05-08T10:42:40;8.18;;;4.18;;
77287;SDS011;66345;42.694;23.346;2023-05-08T10:45:06;7.20;;;4.37;;
77287;SDS011;66345;42.694;23.346;2023-05-08T10:53:39;7.32;;;4.05;;
77287;SDS011;66345;42.694;23.346;2023-05-08T10:56:06;7.28;;;4.15;;
77287;SDS011;66345;42.694;23.346;2023-05-08T10:58:34;10.30;;;5.00;;
77287;SDS011;66345;42.694;23.346;2023-05-08T11:03:32;6.95;;;4.43;;
77287;SDS011;66345;42.694;23.346;2023-05-08T11:06:05;6.35;;;3.70;;
77287;SDS011;66345;42.694;23.346;2023-05-08T11:08:31;6.53;;;4.33;;
77287;SDS011;66345;42.694;23.346;2023-05-08T11:13:26;9.50;;;3.80;;
77287;SDS011;66345;42.694;23.346;2023-05-08T11:16:11;9.55;;;4.00;;
77287;SDS011;66345;42.694;23.346;2023-05-08T11:18:37;9.67;;;4.63;;
77287;SDS011;66345;42.694;23.346;2023-05-08T11:27:39;6.15;;;3.70;;
77287;SDS011;66345;42.694;23.346;2023-05-08T11:30:24;5.63;;;3.60;;
77287;SDS011;66345;42.694;23.346;2023-05-08T11:35:39;6.53;;;4.00;;
77287;SDS011;66345;42.694;23.346;2023-05-08T11:40:47;5.47;;;3.40;;
77287;SDS011;66345;42.694;23.346;2023-05-08T11:46:24;6.57;;;3.13;;
77287;SDS011;66345;42.694;23.346;2023-05-08T11:49:02;5.77;;;3.30;;
77287;SDS011;66345;42.694;23.346;2023-05-08T11:51:31;5.70;;;3.47;;
77287;SDS011;66345;42.694;23.346;2023-05-08T11:54:00;6.75;;;3.33;;
77287;SDS011;66345;42.694;23.346;2023-05-08T11:56:26;5.85;;;3.30;;
77287;SDS011;66345;42.694;23.346;2023-05-08T11:59:03;7.40;;;4.17;;
77287;SDS011;66345;42.694;23.346;2023-05-08T12:01:30;7.15;;;3.38;;
77287;SDS011;66345;42.694;23.346;2023-05-08T12:04:15;4.78;;;3.17;;
77287;SDS011;66345;42.694;23.346;2023-05-08T12:06:41;9.20;;;4.78;;
77287;SDS011;66345;42.694;23.346;2023-05-08T12:09:13;6.53;;;3.40;;
77287;SDS011;66345;42.694;23.346;2023-05-08T12:11:40;6.43;;;3.22;;
77287;SDS011;66345;42.694;23.346;2023-05-08T12:14:08;6.05;;;3.80;;
77287;SDS011;66345;42.694;23.346;2023-05-08T12:16:37;4.90;;;3.20;;
77287;SDS011;66345;42.694;23.346;2023-05-08T12:19:04;7.17;;;3.43;;
77287;SDS011;66345;42.694;23.346;2023-05-08T12:21:34;5.88;;;3.30;;
77287;SDS011;66345;42.694;23.346;2023-05-08T12:23:59;7.22;;;3.80;;
77287;SDS011;66345;42.694;23.346;2023-05-08T12:26:25;7.07;;;3.20;;
77287;SDS011;66345;42.694;23.346;2023-05-08T12:28:54;7.73;;;4.00;;
77287;SDS011;66345;42.694;23.346;2023-05-08T12:31:20;5.17;;;3.40;;
77287;SDS011;66345;42.694;23.346;2023-05-08T12:33:47;5.22;;;3.10;;
77287;SDS011;66345;42.694;23.346;2023-05-08T12:36:12;6.47;;;3.10;;
77287;SDS011;66345;42.694;23.346;2023-05-08T12:38:38;5.57;;;3.10;;
77287;SDS011;66345;42.694;23.346;2023-05-08T12:41:04;5.40;;;3.17;;
77287;SDS011;66345;42.694;23.346;2023-05-08T12:43:33;8.00;;;3.50;;
77287;SDS011;66345;42.694;23.346;2023-05-08T12:45:59;5.00;;;2.80;;
77287;SDS011;66345;42.694;23.346;2023-05-08T12:48:25;4.97;;;2.77;;
77287;SDS011;66345;42.694;23.346;2023-05-08T12:50:51;6.97;;;3.53;;
77287;SDS011;66345;42.694;23.346;2023-05-08T12:53:17;6.70;;;3.53;;
77287;SDS011;66345;42.694;23.346;2023-05-08T12:55:53;7.60;;;3.58;;
77287;SDS011;66345;42.694;23.346;2023-05-08T12:58:23;7.85;;;3.00;;
77287;SDS011;66345;42.694;23.346;2023-05-08T13:00:50;5.50;;;2.63;;
77287;SDS011;66345;42.694;23.346;2023-05-08T13:03:21;8.27;;;3.40;;
77287;SDS011;66345;42.694;23.346;2023-05-08T13:05:51;8.73;;;3.87;;
77287;SDS011;66345;42.694;23.346;2023-05-08T13:08:18;10.77;;;3.75;;
77287;SDS011;66345;42.694;23.346;2023-05-08T13:10:50;8.88;;;4.20;;
77287;SDS011;66345;42.694;23.346;2023-05-08T13:13:21;7.63;;;3.95;;
77287;SDS011;66345;42.694;23.346;2023-05-08T13:15:48;10.05;;;4.05;;
77287;SDS011;66345;42.694;23.346;2023-05-08T13:18:15;7.00;;;3.73;;
77287;SDS011;66345;42.694;23.346;2023-05-08T13:20:42;6.68;;;3.40;;
77287;SDS011;66345;42.694;23.346;2023-05-08T13:23:08;9.63;;;4.00;;
77287;SDS011;66345;42.694;23.346;2023-05-08T13:25:35;6.13;;;3.45;;
77287;SDS011;66345;42.694;23.346;2023-05-08T13:28:02;6.85;;;3.53;;
77287;SDS011;66345;42.694;23.346;2023-05-08T13:30:29;6.93;;;3.43;;
77287;SDS011;66345;42.694;23.346;2023-05-08T13:32:55;5.00;;;3.30;;
77287;SDS011;66345;42.694;23.346;2023-05-08T13:35:20;6.50;;;3.40;;
77287;SDS011;66345;42.694;23.346;2023-05-08T13:37:47;8.13;;;3.50;;
77287;SDS011;66345;42.694;23.346;2023-05-08T13:40:13;6.80;;;3.28;;
77287;SDS011;66345;42.694;23.346;2023-05-08T13:42:40;7.70;;;3.53;;
77287;SDS011;66345;42.694;23.346;2023-05-08T13:45:07;7.10;;;3.63;;
77287;SDS011;66345;42.694;23.346;2023-05-08T13:47:36;5.82;;;3.60;;
77287;SDS011;66345;42.694;23.346;2023-05-08T13:50:03;6.50;;;3.20;;
77287;SDS011;66345;42.694;23.346;2023-05-08T13:52:28;8.48;;;3.40;;
77287;SDS011;66345;42.694;23.346;2023-05-08T13:54:54;6.27;;;3.60;;
77287;SDS011;66345;42.694;23.346;2023-05-08T13:57:20;6.28;;;3.55;;
77287;SDS011;66345;42.694;23.346;2023-05-08T13:59:46;6.05;;;3.65;;
77287;SDS011;66345;42.694;23.346;2023-05-08T14:02:12;6.37;;;3.90;;
77287;SDS011;66345;42.694;23.346;2023-05-08T14:04:38;6.30;;;3.67;;
77287;SDS011;66345;42.694;23.346;2023-05-08T14:07:04;5.47;;;3.60;;
77287;SDS011;66345;42.694;23.346;2023-05-08T14:09:30;7.70;;;3.83;;
77287;SDS011;66345;42.694;23.346;2023-05-08T14:11:56;7.40;;;3.55;;
77287;SDS011;66345;42.694;23.346;2023-05-08T14:14:21;9.73;;;4.03;;
77287;SDS011;66345;42.694;23.346;2023-05-08T14:16:47;6.17;;;3.70;;
77287;SDS011;66345;42.694;23.346;2023-05-08T14:19:13;6.22;;;3.50;;
77287;SDS011;66345;42.694;23.346;2023-05-08T14:21:39;6.18;;;3.60;;
77287;SDS011;66345;42.694;23.346;2023-05-08T14:24:04;6.57;;;3.40;;
77287;SDS011;66345;42.694;23.346;2023-05-08T14:26:30;6.30;;;3.90;;
77287;SDS011;66345;42.694;23.346;2023-05-08T14:28:55;6.17;;;3.53;;
77287;SDS011;66345;42.694;23.346;2023-05-08T14:31:21;5.90;;;3.38;;
77287;SDS011;66345;42.694;23.346;2023-05-08T14:33:46;7.90;;;3.47;;
77287;SDS011;66345;42.694;23.346;2023-05-08T14:36:12;6.57;;;3.90;;
77287;SDS011;66345;42.694;23.346;2023-05-08T14:38:37;6.30;;;2.87;;
77287;SDS011;66345;42.694;23.346;2023-05-08T14:41:02;5.60;;;2.70;;
77287;SDS011;66345;42.694;23.346;2023-05-08T14:43:29;4.03;;;2.53;;
77287;SDS011;66345;42.694;23.346;2023-05-08T14:45:54;5.60;;;2.70;;
77287;SDS011;66345;42.694;23.346;2023-05-08T14:48:20;6.40;;;2.22;;
77287;SDS011;66345;42.694;23.346;2023-05-08T14:50:45;5.07;;;2.63;;
77287;SDS011;66345;42.694;23.346;2023-05-08T14:53:11;7.03;;;2.40;;
77287;SDS011;66345;42.694;23.346;2023-05-08T14:55:36;6.33;;;2.70;;
77287;SDS011;66345;42.694;23.346;2023-05-08T14:58:02;7.03;;;2.53;;
77287;SDS011;66345;42.694;23.346;2023-05-08T15:00:27;4.97;;;2.10;;
77287;SDS011;66345;42.694;23.346;2023-05-08T15:02:53;5.57;;;2.40;;
77287;SDS011;66345;42.694;23.346;2023-05-08T15:05:18;5.32;;;2.30;;
77287;SDS011;66345;42.694;23.346;2023-05-08T15:07:44;4.77;;;2.17;;
77287;SDS011;66345;42.694;23.346;2023-05-08T15:10:11;5.13;;;2.47;;
77287;SDS011;66345;42.694;23.346;2023-05-08T15:12:36;5.03;;;2.10;;
77287;SDS011;66345;42.694;23.346;2023-05-08T15:15:01;6.03;;;2.47;;
77287;SDS011;66345;42.694;23.346;2023-05-08T15:17:27;4.82;;;2.10;;
77287;SDS011;66345;42.694;23.346;2023-05-08T15:19:52;5.30;;;2.30;;
77287;SDS011;66345;42.694;23.346;2023-05-08T15:22:18;5.13;;;2.40;;
77287;SDS011;66345;42.694;23.346;2023-05-08T15:24:43;5.30;;;2.10;;
77287;SDS011;66345;42.694;23.346;2023-05-08T15:27:09;5.22;;;2.40;;
77287;SDS011;66345;42.694;23.346;2023-05-08T15:29:35;4.95;;;2.40;;
77287;SDS011;66345;42.694;23.346;2023-05-08T15:32:03;4.80;;;2.50;;